Arapaho — WCX9424 — position and weather

sailwx.info

Track history (hours):
 
Tides and Currents Weather Stations Pressure Air Temp Water Temp Dewpoint Dewpoint Depression Visibility Wind Speed Wind Dir Waves Ship Positions

Arapaho

Owner: SAUSE BROTHERS OCEAN TOWING CO INC, LONG BEACH, CA. More information available from US FCC via Universal Licensing System and Coast Guard Vessel Documentation Center.

Last reported at 2014-Dec-18 06:33 UTC. Time now 2014-Dec-18 07:28 UTC.
Position N 33°45' W 118°10'.

Length 37 m; draft 1.5 m.

Type: Towing. MMSI: 367004270.

Date/timePositionNaut miles runAvg speedWind from/ knotsBaromVisibWave heightAir tempDewpointWater temp
2014-Dec-18 06:33N 33°45' W 118°10'0 0.0
2014-Dec-18 05:33N 33°45' W 118°10'2 0.7
2014-Dec-18 02:11N 33°45' W 118°12'0 0.0
2014-Dec-18 01:33N 33°45' W 118°12'0 0.0
2014-Dec-18 00:09N 33°45' W 118°12'2 3.7
2014-Dec-17 23:33N 33°45' W 118°10'1 1.1
2014-Dec-17 22:25N 33°44' W 118°08'3 3.1
2014-Dec-17 21:23N 33°44' W 118°12'1 0.5
2014-Dec-17 18:33N 33°44' W 118°10'1 1.2
2014-Dec-17 17:27N 33°46' W 118°11'2 1.5
2014-Dec-17 16:15N 33°44' W 118°12'0 0.1
2014-Dec-17 12:29N 33°45' W 118°12'0 0.0
2014-Dec-17 11:33N 33°45' W 118°12'2 1.9
2014-Dec-17 10:33N 33°44' W 118°10'2 2.0
2014-Dec-17 09:31N 33°44' W 118°12'1 0.2
2014-Dec-17 05:06N 33°44' W 118°11'1 0.5
2014-Dec-17 02:32N 33°45' W 118°12'0 0.0
2014-Dec-17 01:33N 33°45' W 118°12'0 0.0
2014-Dec-17 00:33N 33°45' W 118°12'2 2.2
2014-Dec-16 23:31N 33°45' W 118°10'1 1.0
2014-Dec-16 22:32N 33°44' W 118°08'3 2.6
2014-Dec-16 21:17N 33°44' W 118°12'0 0.0
2014-Dec-16 18:20N 33°44' W 118°12'2 2.9
2014-Dec-16 17:29N 33°45' W 118°10'2 1.8
2014-Dec-16 16:18N 33°44' W 118°12'1 0.9
2014-Dec-16 15:20N 33°45' W 118°12'2 2.6
2014-Dec-16 14:31N 33°45' W 118°10'0 0.0
2014-Dec-16 13:33N 33°45' W 118°10'0 0.0
2014-Dec-16 12:33N 33°45' W 118°10'0 0.0
2014-Dec-16 11:27N 33°45' W 118°10'0 0.0
2014-Dec-16 09:32N 33°45' W 118°10'0 0.1
2014-Dec-16 08:06N 33°45' W 118°10'2 0.6
2014-Dec-16 04:22N 33°45' W 118°12'0 0.0
2014-Dec-16 02:31N 33°45' W 118°12'2 1.8
2014-Dec-16 01:18N 33°45' W 118°10'1 0.3
2014-Dec-15 23:14N 33°45' W 118°10'1 0.7
2014-Dec-15 22:23N 33°45' W 118°10'2 2.0
2014-Dec-15 21:23N 33°44' W 118°12'1 0.5
2014-Dec-15 18:32N 33°44' W 118°10'2 1.6
2014-Dec-15 17:33N 33°45' W 118°09'1 0.8
2014-Dec-15 16:33N 33°45' W 118°10'2 0.0
2014-Dec-13 22:26N 33°45' W 118°12'2 2.6
2014-Dec-13 21:33N 33°45' W 118°10'1 1.1
2014-Dec-13 20:24N 33°44' W 118°08'0 0.0
2014-Dec-13 19:33N 33°44' W 118°08'2 1.2
2014-Dec-13 17:33N 33°46' W 118°11'2 1.5
2014-Dec-13 16:20N 33°44' W 118°12'0 0.1
2014-Dec-13 09:23N 33°45' W 118°12'3 3.8
2014-Dec-13 08:33N 33°44' W 118°08'1 1.2
2014-Dec-13 07:26N 33°44' W 118°10'2 2.2
2014-Dec-13 06:33N 33°44' W 118°12'0 0.2
2014-Dec-13 05:31N 33°45' W 118°12'0 0.0
2014-Dec-13 04:31N 33°45' W 118°12'0 0.0
2014-Dec-13 03:32N 33°45' W 118°12'0 0.0
2014-Dec-13 02:28N 33°45' W 118°12'1 0.1
2014-Dec-12 22:29N 33°44' W 118°12'1 0.6
2014-Dec-12 21:33N 33°45' W 118°12'0 0.0
2014-Dec-12 20:33N 33°45' W 118°12'0 0.0
2014-Dec-12 19:31N 33°45' W 118°12'0 0.0
2014-Dec-12 18:21N 33°45' W 118°12'0 0.4
2014-Dec-12 17:33N 33°44' W 118°12'0 0.2
2014-Dec-12 16:06N 33°45' W 118°12'0 0.0
2014-Dec-12 15:29N 33°45' W 118°12'0 0.1
2014-Dec-12 13:30N 33°44' W 118°12'0 0.3
2014-Dec-12 12:32N 33°45' W 118°12'0 0.1
2014-Dec-12 09:33N 33°44' W 118°12'0 0.4
2014-Dec-12 08:33N 33°45' W 118°12'0 0.0
2014-Dec-12 07:05N 33°45' W 118°12'0 0.0
2014-Dec-12 06:33N 33°45' W 118°12'0 0.0
2014-Dec-12 05:13N 33°45' W 118°12'0 0.0
2014-Dec-12 04:33N 33°45' W 118°12'0 0.0
2014-Dec-12 03:27N 33°45' W 118°12'0 0.0
2014-Dec-12 02:29N 33°45' W 118°12'0 0.0
2014-Dec-12 01:32N 33°45' W 118°12'0 0.0
2014-Dec-12 00:33N 33°45' W 118°12'0 0.0
2014-Dec-11 23:31N 33°45' W 118°12'2 2.2
2014-Dec-11 22:31N 33°45' W 118°10'1 0.6
2014-Dec-11 21:28N 33°45' W 118°10'2 2.3
2014-Dec-11 20:33N 33°45' W 118°12'2 1.6
2014-Dec-11 19:14N 33°45' W 118°10'1 0.9
2014-Dec-11 18:33N 33°45' W 118°10'1 0.5
2014-Dec-11 17:22N 33°45' W 118°10'2 2.0
2014-Dec-11 16:25N 33°44' W 118°12'1 0.9
2014-Dec-11 15:33N 33°45' W 118°12'2 0.6
2014-Dec-11 12:14N 33°45' W 118°10'1 1.6
2014-Dec-11 11:33N 33°44' W 118°08'0 0.0
2014-Dec-11 09:30N 33°44' W 118°08'0 0.1
2014-Dec-11 08:33N 33°44' W 118°08'1 0.5
2014-Dec-11 06:22N 33°45' W 118°10'1 0.7
2014-Dec-11 05:33N 33°45' W 118°10'1 1.4
2014-Dec-11 04:33N 33°44' W 118°11'1 1.4
2014-Dec-11 03:33N 33°45' W 118°12'0 0.0
2014-Dec-11 02:33N 33°45' W 118°12'0 0.0
2014-Dec-11 01:33N 33°45' W 118°12'0 0.0
2014-Dec-11 00:34N 33°45' W 118°12'0 0.0
2014-Dec-10 23:33N 33°45' W 118°12'0 0.0
2014-Dec-10 22:33N 33°45' W 118°12'0 0.0
2014-Dec-10 21:33N 33°45' W 118°12'0 0.0
2014-Dec-10 20:31N 33°45' W 118°12'0 0.0
2014-Dec-10 19:17N 33°45' W 118°12'3 3.2
2014-Dec-10 18:16N 33°44' W 118°08'1 1.8
2014-Dec-10 17:33N 33°45' W 118°10'2 2.4
2014-Dec-10 16:33N 33°44' W 118°12'0 0.2
2014-Dec-10 15:07N 33°45' W 118°12'3 2.0
2014-Dec-10 13:31N 33°44' W 118°08'1 0.5
2014-Dec-10 11:32N 33°45' W 118°10'1 0.6
2014-Dec-10 10:32N 33°45' W 118°10'0 0.2
2014-Dec-10 09:33N 33°45' W 118°10'1 0.5
2014-Dec-10 08:24N 33°45' W 118°10'1 0.7
2014-Dec-10 07:33N 33°45' W 118°10'0 0.0
2014-Dec-10 06:28N 33°45' W 118°10'1 0.7
2014-Dec-10 05:32N 33°45' W 118°10'1 0.8
2014-Dec-10 04:33N 33°44' W 118°11'1 1.4
2014-Dec-10 03:33N 33°45' W 118°12'0 0.0
2014-Dec-10 02:33N 33°45' W 118°12'0 0.0
2014-Dec-10 01:33N 33°45' W 118°12'1 0.7
2014-Dec-10 00:33N 33°44' W 118°12'3 2.9
2014-Dec-09 23:33N 33°44' W 118°08'2 2.2
2014-Dec-09 22:33N 33°46' W 118°11'1 1.4
2014-Dec-09 21:33N 33°44' W 118°10'1 1.2
2014-Dec-09 20:33N 33°45' W 118°10'1 0.4
2014-Dec-09 19:05N 33°45' W 118°10'1 1.7
2014-Dec-09 18:28N 33°44' W 118°08'1 0.9
2014-Dec-09 17:16N 33°45' W 118°10'1 0.8
2014-Dec-09 16:33N 33°45' W 118°10'2 1.9
2014-Dec-09 15:33N 33°45' W 118°12'2 0.9
2014-Dec-09 13:08N 33°45' W 118°10'1 1.1
2014-Dec-09 12:33N 33°45' W 118°10'1 0.6
2014-Dec-09 11:33N 33°45' W 118°10'0 0.1
2014-Dec-09 10:33N 33°45' W 118°10'0 0.5
2014-Dec-09 09:33N 33°45' W 118°10'0 0.3
2014-Dec-09 08:33N 33°45' W 118°10'0 0.3
2014-Dec-09 07:33N 33°45' W 118°10'1 0.6
2014-Dec-09 06:33N 33°45' W 118°09'2 0.8
2014-Dec-09 04:33N 33°44' W 118°11'1 1.2
2014-Dec-09 03:25N 33°45' W 118°12'0 0.0
2014-Dec-09 02:33N 33°45' W 118°12'0 0.0
2014-Dec-09 01:33N 33°45' W 118°12'0 0.0
2014-Dec-09 00:33N 33°45' W 118°12'2 1.5
2014-Dec-08 23:33N 33°46' W 118°11'2 1.5
2014-Dec-08 22:33N 33°45' W 118°12'0 0.0
2014-Dec-08 21:33N 33°45' W 118°12'3 2.8
2014-Dec-08 20:33N 33°43' W 118°15'2 1.4
2014-Dec-08 19:25N 33°44' W 118°16'4 4.1
2014-Dec-08 18:33N 33°44' W 118°12'2 2.4
2014-Dec-08 17:33N 33°45' W 118°09'1 0.8
2014-Dec-08 16:30N 33°44' W 118°08'3 3.4
2014-Dec-08 15:33N 33°45' W 118°12'  
Track history (hours):
 
Tides and Currents Weather Stations Pressure Air Temp Water Temp Dewpoint Dewpoint Depression Visibility Wind Speed Wind Dir Waves Ship Positions

Arapaho

Owner: SAUSE BROTHERS OCEAN TOWING CO INC, LONG BEACH, CA. More information available from US FCC via Universal Licensing System and Coast Guard Vessel Documentation Center.

Last reported at 2014-Dec-18 06:33 UTC. Time now 2014-Dec-18 07:28 UTC.
Position N 33°45' W 118°10'.

Length 37 m; draft 1.5 m.

Type: Towing. MMSI: 367004270.

Date/timePositionNaut miles runAvg speedWind from/ knotsBaromVisibWave heightAir tempDewpointWater temp
2014-Dec-18 06:33N 33°45' W 118°10'0 0.0
2014-Dec-18 05:33N 33°45' W 118°10'2 0.7
2014-Dec-18 02:11N 33°45' W 118°12'0 0.0
2014-Dec-18 01:33N 33°45' W 118°12'0 0.0
2014-Dec-18 00:09N 33°45' W 118°12'2 3.7
2014-Dec-17 23:33N 33°45' W 118°10'1 1.1
2014-Dec-17 22:25N 33°44' W 118°08'3 3.1
2014-Dec-17 21:23N 33°44' W 118°12'1 0.5
2014-Dec-17 18:33N 33°44' W 118°10'1 1.2
2014-Dec-17 17:27N 33°46' W 118°11'2 1.5
2014-Dec-17 16:15N 33°44' W 118°12'0 0.1
2014-Dec-17 12:29N 33°45' W 118°12'0 0.0
2014-Dec-17 11:33N 33°45' W 118°12'2 1.9
2014-Dec-17 10:33N 33°44' W 118°10'2 2.0
2014-Dec-17 09:31N 33°44' W 118°12'1 0.2
2014-Dec-17 05:06N 33°44' W 118°11'1 0.5
2014-Dec-17 02:32N 33°45' W 118°12'0 0.0
2014-Dec-17 01:33N 33°45' W 118°12'0 0.0
2014-Dec-17 00:33N 33°45' W 118°12'2 2.2
2014-Dec-16 23:31N 33°45' W 118°10'1 1.0
2014-Dec-16 22:32N 33°44' W 118°08'3 2.6
2014-Dec-16 21:17N 33°44' W 118°12'0 0.0
2014-Dec-16 18:20N 33°44' W 118°12'2 2.9
2014-Dec-16 17:29N 33°45' W 118°10'2 1.8
2014-Dec-16 16:18N 33°44' W 118°12'1 0.9
2014-Dec-16 15:20N 33°45' W 118°12'2 2.6
2014-Dec-16 14:31N 33°45' W 118°10'0 0.0
2014-Dec-16 13:33N 33°45' W 118°10'0 0.0
2014-Dec-16 12:33N 33°45' W 118°10'0 0.0
2014-Dec-16 11:27N 33°45' W 118°10'0 0.0
2014-Dec-16 09:32N 33°45' W 118°10'0 0.1
2014-Dec-16 08:06N 33°45' W 118°10'2 0.6
2014-Dec-16 04:22N 33°45' W 118°12'0 0.0
2014-Dec-16 02:31N 33°45' W 118°12'2 1.8
2014-Dec-16 01:18N 33°45' W 118°10'1 0.3
2014-Dec-15 23:14N 33°45' W 118°10'1 0.7
2014-Dec-15 22:23N 33°45' W 118°10'2 2.0
2014-Dec-15 21:23N 33°44' W 118°12'1 0.5
2014-Dec-15 18:32N 33°44' W 118°10'2 1.6
2014-Dec-15 17:33N 33°45' W 118°09'1 0.8
2014-Dec-15 16:33N 33°45' W 118°10'2 0.0
2014-Dec-13 22:26N 33°45' W 118°12'2 2.6
2014-Dec-13 21:33N 33°45' W 118°10'1 1.1
2014-Dec-13 20:24N 33°44' W 118°08'0 0.0
2014-Dec-13 19:33N 33°44' W 118°08'2 1.2
2014-Dec-13 17:33N 33°46' W 118°11'2 1.5
2014-Dec-13 16:20N 33°44' W 118°12'0 0.1
2014-Dec-13 09:23N 33°45' W 118°12'3 3.8
2014-Dec-13 08:33N 33°44' W 118°08'1 1.2
2014-Dec-13 07:26N 33°44' W 118°10'2 2.2
2014-Dec-13 06:33N 33°44' W 118°12'0 0.2
2014-Dec-13 05:31N 33°45' W 118°12'0 0.0
2014-Dec-13 04:31N 33°45' W 118°12'0 0.0
2014-Dec-13 03:32N 33°45' W 118°12'0 0.0
2014-Dec-13 02:28N 33°45' W 118°12'1 0.1
2014-Dec-12 22:29N 33°44' W 118°12'1 0.6
2014-Dec-12 21:33N 33°45' W 118°12'0 0.0
2014-Dec-12 20:33N 33°45' W 118°12'0 0.0
2014-Dec-12 19:31N 33°45' W 118°12'0 0.0
2014-Dec-12 18:21N 33°45' W 118°12'0 0.4
2014-Dec-12 17:33N 33°44' W 118°12'0 0.2
2014-Dec-12 16:06N 33°45' W 118°12'0 0.0
2014-Dec-12 15:29N 33°45' W 118°12'0 0.1
2014-Dec-12 13:30N 33°44' W 118°12'0 0.3
2014-Dec-12 12:32N 33°45' W 118°12'0 0.1
2014-Dec-12 09:33N 33°44' W 118°12'0 0.4
2014-Dec-12 08:33N 33°45' W 118°12'0 0.0
2014-Dec-12 07:05N 33°45' W 118°12'0 0.0
2014-Dec-12 06:33N 33°45' W 118°12'0 0.0
2014-Dec-12 05:13N 33°45' W 118°12'0 0.0
2014-Dec-12 04:33N 33°45' W 118°12'0 0.0
2014-Dec-12 03:27N 33°45' W 118°12'0 0.0
2014-Dec-12 02:29N 33°45' W 118°12'0 0.0
2014-Dec-12 01:32N 33°45' W 118°12'0 0.0
2014-Dec-12 00:33N 33°45' W 118°12'0 0.0
2014-Dec-11 23:31N 33°45' W 118°12'2 2.2
2014-Dec-11 22:31N 33°45' W 118°10'1 0.6
2014-Dec-11 21:28N 33°45' W 118°10'2 2.3
2014-Dec-11 20:33N 33°45' W 118°12'2 1.6
2014-Dec-11 19:14N 33°45' W 118°10'1 0.9
2014-Dec-11 18:33N 33°45' W 118°10'1 0.5
2014-Dec-11 17:22N 33°45' W 118°10'2 2.0
2014-Dec-11 16:25N 33°44' W 118°12'1 0.9
2014-Dec-11 15:33N 33°45' W 118°12'2 0.6
2014-Dec-11 12:14N 33°45' W 118°10'1 1.6
2014-Dec-11 11:33N 33°44' W 118°08'0 0.0
2014-Dec-11 09:30N 33°44' W 118°08'0 0.1
2014-Dec-11 08:33N 33°44' W 118°08'1 0.5
2014-Dec-11 06:22N 33°45' W 118°10'1 0.7
2014-Dec-11 05:33N 33°45' W 118°10'1 1.4
2014-Dec-11 04:33N 33°44' W 118°11'1 1.4
2014-Dec-11 03:33N 33°45' W 118°12'0 0.0
2014-Dec-11 02:33N 33°45' W 118°12'0 0.0
2014-Dec-11 01:33N 33°45' W 118°12'0 0.0
2014-Dec-11 00:34N 33°45' W 118°12'0 0.0
2014-Dec-10 23:33N 33°45' W 118°12'0 0.0
2014-Dec-10 22:33N 33°45' W 118°12'0 0.0
2014-Dec-10 21:33N 33°45' W 118°12'0 0.0
2014-Dec-10 20:31N 33°45' W 118°12'0 0.0
2014-Dec-10 19:17N 33°45' W 118°12'3 3.2
2014-Dec-10 18:16N 33°44' W 118°08'1 1.8
2014-Dec-10 17:33N 33°45' W 118°10'2 2.4
2014-Dec-10 16:33N 33°44' W 118°12'0 0.2
2014-Dec-10 15:07N 33°45' W 118°12'3 2.0
2014-Dec-10 13:31N 33°44' W 118°08'1 0.5
2014-Dec-10 11:32N 33°45' W 118°10'1 0.6
2014-Dec-10 10:32N 33°45' W 118°10'0 0.2
2014-Dec-10 09:33N 33°45' W 118°10'1 0.5
2014-Dec-10 08:24N 33°45' W 118°10'1 0.7
2014-Dec-10 07:33N 33°45' W 118°10'0 0.0
2014-Dec-10 06:28N 33°45' W 118°10'1 0.7
2014-Dec-10 05:32N 33°45' W 118°10'1 0.8
2014-Dec-10 04:33N 33°44' W 118°11'1 1.4
2014-Dec-10 03:33N 33°45' W 118°12'0 0.0
2014-Dec-10 02:33N 33°45' W 118°12'0 0.0
2014-Dec-10 01:33N 33°45' W 118°12'1 0.7
2014-Dec-10 00:33N 33°44' W 118°12'3 2.9
2014-Dec-09 23:33N 33°44' W 118°08'2 2.2
2014-Dec-09 22:33N 33°46' W 118°11'1 1.4
2014-Dec-09 21:33N 33°44' W 118°10'1 1.2
2014-Dec-09 20:33N 33°45' W 118°10'1 0.4
2014-Dec-09 19:05N 33°45' W 118°10'1 1.7
2014-Dec-09 18:28N 33°44' W 118°08'1 0.9
2014-Dec-09 17:16N 33°45' W 118°10'1 0.8
2014-Dec-09 16:33N 33°45' W 118°10'2 1.9
2014-Dec-09 15:33N 33°45' W 118°12'2 0.9
2014-Dec-09 13:08N 33°45' W 118°10'1 1.1
2014-Dec-09 12:33N 33°45' W 118°10'1 0.6
2014-Dec-09 11:33N 33°45' W 118°10'0 0.1
2014-Dec-09 10:33N 33°45' W 118°10'0 0.5
2014-Dec-09 09:33N 33°45' W 118°10'0 0.3
2014-Dec-09 08:33N 33°45' W 118°10'0 0.3
2014-Dec-09 07:33N 33°45' W 118°10'1 0.6
2014-Dec-09 06:33N 33°45' W 118°09'2 0.8
2014-Dec-09 04:33N 33°44' W 118°11'1 1.2
2014-Dec-09 03:25N 33°45' W 118°12'0 0.0
2014-Dec-09 02:33N 33°45' W 118°12'0 0.0
2014-Dec-09 01:33N 33°45' W 118°12'0 0.0
2014-Dec-09 00:33N 33°45' W 118°12'2 1.5
2014-Dec-08 23:33N 33°46' W 118°11'2 1.5
2014-Dec-08 22:33N 33°45' W 118°12'0 0.0
2014-Dec-08 21:33N 33°45' W 118°12'3 2.8
2014-Dec-08 20:33N 33°43' W 118°15'2 1.4
2014-Dec-08 19:25N 33°44' W 118°16'4 4.1
2014-Dec-08 18:33N 33°44' W 118°12'2 2.4
2014-Dec-08 17:33N 33°45' W 118°09'1 0.8
2014-Dec-08 16:30N 33°44' W 118°08'3 3.4
2014-Dec-08 15:33N 33°45' W 118°12'  

Dump ship's entire track history